Time;durP1;ratioP1;P1;durP2;ratioP2;P2;SDS_P1;SDS_P2;PMS_P1;PMS_P2;Temp;Humidity;BMP_temperature;BMP_pressure;BME280_temperature;BME280_humidity;BME280_pressure;Samples;Min_cycle;Max_cycle;Signal;HPM_P1;HPM_P2
2023/05/13 00:01:46;;;;;;;11.90;8.43;;;26.40;99.90;;;;;;1863587;75;21131;-85
2023/05/13 00:04:19;;;;;;;11.03;8.85;;;26.40;99.90;;;;;;1859274;75;21541;-86
2023/05/13 00:06:50;;;;;;;10.18;6.83;;;26.40;99.90;;;;;;1869024;75;21240;-84
2023/05/13 00:09:21;;;;;;;12.28;6.72;;;26.40;99.90;;;;;;1853807;75;21239;-84
2023/05/13 00:11:52;;;;;;;8.88;5.97;;;26.50;99.90;;;;;;1863732;75;21163;-85
2023/05/13 00:14:28;;;;;;;13.95;7.97;;;26.40;99.90;;;;;;1862424;75;21118;-85
2023/05/13 00:17:03;;;;;;;10.25;7.70;;;26.40;99.90;;;;;;1852582;75;21222;-86
2023/05/13 00:19:33;;;;;;;7.50;4.53;;;26.50;99.90;;;;;;1847832;75;21124;-85
2023/05/13 00:22:04;;;;;;;7.47;4.53;;;26.40;99.90;;;;;;1866069;75;21175;-85
2023/05/13 00:24:36;;;;;;;9.78;6.40;;;26.40;99.90;;;;;;1858902;75;21155;-85
2023/05/13 00:27:07;;;;;;;7.37;4.70;;;26.40;99.90;;;;;;1870781;75;21127;-84
2023/05/13 00:29:38;;;;;;;11.22;4.42;;;26.40;99.90;;;;;;1810693;77;21151;-84
2023/05/13 00:32:09;;;;;;;9.33;4.85;;;26.40;99.90;;;;;;1878887;75;21198;-84
2023/05/13 00:34:40;;;;;;;6.67;5.15;;;26.40;99.90;;;;;;1863937;75;21229;-84
2023/05/13 00:37:12;;;;;;;6.85;5.33;;;26.40;99.90;;;;;;1862189;75;21154;-85
2023/05/13 00:39:44;;;;;;;21.33;5.70;;;26.30;99.90;;;;;;1865047;75;21187;-84
2023/05/13 00:42:15;;;;;;;7.83;5.83;;;26.30;99.90;;;;;;1880085;75;21107;-83
2023/05/13 00:44:47;;;;;;;9.13;5.70;;;26.30;99.90;;;;;;1871045;75;21075;-84
2023/05/13 00:47:18;;;;;;;6.50;4.70;;;26.30;99.90;;;;;;1861376;75;21236;-85
2023/05/13 00:49:49;;;;;;;9.18;4.92;;;26.30;99.90;;;;;;1867699;75;21233;-85
2023/05/13 00:52:20;;;;;;;5.95;4.37;;;26.30;99.90;;;;;;1863843;75;21418;-85
2023/05/13 00:54:51;;;;;;;11.57;5.10;;;26.30;99.90;;;;;;1881122;75;21139;-84
2023/05/13 00:57:23;;;;;;;9.80;5.67;;;26.30;99.90;;;;;;1825038;77;21123;-84
2023/05/13 00:59:54;;;;;;;7.90;6.30;;;26.30;99.90;;;;;;1878449;74;21063;-84
2023/05/13 01:02:34;;;;;;;10.53;6.75;;;26.30;99.90;;;;;;1832040;77;21555;-84
2023/05/13 01:05:26;;;;;;;8.68;6.05;;;26.30;99.90;;;;;;1871627;75;21120;-85
2023/05/13 01:08:02;;;;;;;7.80;5.67;;;26.30;99.90;;;;;;1880421;75;21147;-84
2023/05/13 01:10:38;;;;;;;7.50;5.50;;;26.40;99.90;;;;;;1877084;74;21101;-84
2023/05/13 01:13:12;;;;;;;9.50;5.95;;;26.40;99.90;;;;;;1903452;74;21111;-86
2023/05/13 01:15:55;;;;;;;8.53;5.37;;;26.40;99.90;;;;;;1815990;77;21118;-82
2023/05/13 01:18:28;;;;;;;9.10;5.85;;;26.40;99.90;;;;;;1882534;74;21196;-84
2023/05/13 01:21:01;;;;;;;7.95;5.75;;;26.40;99.90;;;;;;1884634;76;21157;-79
2023/05/13 01:23:33;;;;;;;9.63;5.62;;;26.40;99.90;;;;;;1884801;75;21106;-78
2023/05/13 01:26:04;;;;;;;7.53;5.47;;;26.40;99.90;;;;;;1873257;75;21091;-81
2023/05/13 01:28:36;;;;;;;12.85;8.00;;;26.50;99.90;;;;;;1872713;74;21586;-76
2023/05/13 01:31:09;;;;;;;8.60;5.95;;;26.50;99.90;;;;;;1877782;76;21083;-79
2023/05/13 01:33:42;;;;;;;7.20;5.47;;;26.60;99.90;;;;;;1840973;77;21249;-81
2023/05/13 01:36:13;;;;;;;11.12;6.83;;;26.60;99.90;;;;;;1865526;75;21095;-77
2023/05/13 01:38:45;;;;;;;7.80;6.33;;;26.70;99.90;;;;;;1880800;75;21140;-78
2023/05/13 01:41:16;;;;;;;11.68;5.50;;;26.70;99.90;;;;;;1886492;74;21106;-78
2023/05/13 01:43:47;;;;;;;8.33;4.78;;;26.70;99.90;;;;;;1875595;75;21208;-77
2023/05/13 01:46:18;;;;;;;10.72;5.80;;;26.80;99.90;;;;;;1880199;74;21519;-77
2023/05/13 01:48:49;;;;;;;7.15;4.90;;;26.80;99.90;;;;;;1876495;74;21881;-75
2023/05/13 01:51:20;;;;;;;7.87;5.20;;;26.80;99.90;;;;;;1802106;79;21664;-76
2023/05/13 01:53:52;;;;;;;9.53;6.12;;;26.80;99.90;;;;;;1861199;75;21766;-76
2023/05/13 01:56:23;;;;;;;10.58;5.85;;;26.80;99.90;;;;;;1867477;77;21193;-78
2023/05/13 01:58:54;;;;;;;8.18;5.00;;;26.80;99.90;;;;;;1869490;74;21151;-77
2023/05/13 02:01:25;;;;;;;11.40;6.30;;;26.90;99.90;;;;;;1865697;76;21226;-77
2023/05/13 02:04:02;;;;;;;11.95;6.22;;;26.90;99.90;;;;;;1852409;75;21082;-81
2023/05/13 02:06:31;;;;;;;12.93;7.20;;;26.80;99.90;;;;;;1856459;76;21224;-77
2023/05/13 02:09:02;;;;;;;15.25;6.42;;;26.90;99.90;;;;;;1870232;75;21826;-76
2023/05/13 02:11:34;;;;;;;11.30;7.30;;;26.90;99.90;;;;;;1825056;78;21575;-76
2023/05/13 02:14:05;;;;;;;10.13;6.25;;;26.80;99.90;;;;;;1862722;75;21506;-77
2023/05/13 02:16:37;;;;;;;12.23;6.95;;;26.80;99.90;;;;;;1852248;77;21113;-78
2023/05/13 02:19:10;;;;;;;9.48;6.22;;;26.80;99.90;;;;;;1858365;75;21622;-78
2023/05/13 02:21:45;;;;;;;8.85;6.05;;;26.80;99.90;;;;;;1821984;78;21209;-77
2023/05/13 02:24:21;;;;;;;7.97;6.35;;;26.80;99.90;;;;;;1860951;75;21180;-78
2023/05/13 02:26:52;;;;;;;11.00;6.90;;;26.80;99.90;;;;;;1851404;76;21221;-79
2023/05/13 02:29:23;;;;;;;13.00;7.33;;;26.80;99.90;;;;;;1868901;75;21193;-78
2023/05/13 02:31:56;;;;;;;10.35;7.45;;;26.80;99.90;;;;;;1862643;76;21207;-75
2023/05/13 02:34:28;;;;;;;9.33;7.08;;;26.80;99.90;;;;;;1867742;75;21209;-77
2023/05/13 02:36:59;;;;;;;13.03;7.25;;;26.80;99.90;;;;;;1854536;75;21224;-78
2023/05/13 02:39:30;;;;;;;9.80;7.95;;;26.80;99.90;;;;;;1821513;77;21154;-80
2023/05/13 02:42:01;;;;;;;8.90;6.90;;;26.80;99.90;;;;;;1871136;75;21149;-76
2023/05/13 02:44:32;;;;;;;10.28;6.83;;;26.80;99.90;;;;;;1857198;76;21117;-76
2023/05/13 02:47:03;;;;;;;9.80;6.70;;;26.80;99.90;;;;;;1870216;75;21208;-78
2023/05/13 02:49:35;;;;;;;10.13;7.95;;;26.80;99.90;;;;;;1821687;77;21155;-77
2023/05/13 02:52:06;;;;;;;9.93;7.08;;;26.90;99.90;;;;;;1855840;76;21113;-78
2023/05/13 02:54:37;;;;;;;9.18;6.55;;;26.80;99.90;;;;;;1867971;75;21191;-77
2023/05/13 02:57:08;;;;;;;9.95;7.22;;;26.90;99.90;;;;;;1858983;76;21143;-77
2023/05/13 02:59:41;;;;;;;9.38;6.92;;;26.90;99.90;;;;;;1872111;75;21579;-76
2023/05/13 03:02:15;;;;;;;11.85;8.93;;;27.00;99.90;;;;;;1867211;76;21212;-76
2023/05/13 03:04:47;;;;;;;10.60;8.53;;;27.00;99.90;;;;;;1874234;75;21143;-76
2023/05/13 03:07:22;;;;;;;10.30;7.92;;;27.00;99.90;;;;;;1862533;76;21193;-77
2023/05/13 03:09:55;;;;;;;9.45;7.95;;;27.10;99.90;;;;;;1866932;75;21166;-77
2023/05/13 03:12:27;;;;;;;10.20;9.05;;;27.10;99.90;;;;;;1865505;76;21161;-77
2023/05/13 03:14:58;;;;;;;10.05;7.60;;;27.10;99.90;;;;;;1865917;75;21244;-78
2023/05/13 03:17:32;;;;;;;10.30;8.18;;;27.10;99.90;;;;;;1862540;75;21597;-76
2023/05/13 03:20:03;;;;;;;14.83;9.45;;;27.10;99.90;;;;;;1870703;75;21296;-78
2023/05/13 03:22:34;;;;;;;10.35;8.05;;;27.20;99.90;;;;;;1867902;75;21165;-77
2023/05/13 03:25:07;;;;;;;12.25;8.93;;;27.20;99.90;;;;;;1862772;75;21650;-78
2023/05/13 03:27:41;;;;;;;9.58;7.60;;;27.40;99.90;;;;;;1862104;75;21106;-76
2023/05/13 03:30:12;;;;;;;9.35;7.58;;;27.50;99.90;;;;;;1865939;76;21190;-76
2023/05/13 03:32:46;;;;;;;9.05;8.15;;;27.70;99.90;;;;;;1867287;75;21134;-77
2023/05/13 03:35:18;;;;;;;11.33;8.65;;;27.80;99.90;;;;;;1863726;76;21091;-77
2023/05/13 03:37:48;;;;;;;10.15;8.90;;;27.90;99.90;;;;;;1873897;75;21111;-78
2023/05/13 03:40:22;;;;;;;10.70;9.60;;;27.90;99.90;;;;;;1865663;75;21162;-79
2023/05/13 03:42:53;;;;;;;9.93;8.93;;;27.90;99.90;;;;;;1877929;75;21173;-75
2023/05/13 03:45:28;;;;;;;10.80;8.85;;;27.80;99.90;;;;;;1885267;76;21212;-77
2023/05/13 03:47:59;;;;;;;11.18;9.28;;;27.80;99.90;;;;;;1882691;75;21137;-76
2023/05/13 03:50:30;;;;;;;10.72;8.63;;;27.80;99.90;;;;;;1887928;76;21170;-79
2023/05/13 03:53:02;;;;;;;13.62;9.83;;;27.70;99.90;;;;;;1862382;75;21679;-77
2023/05/13 03:55:33;;;;;;;13.90;9.55;;;27.70;99.90;;;;;;1864963;75;21141;-78
2023/05/13 03:58:13;;;;;;;9.53;8.48;;;27.70;99.90;;;;;;1885630;76;21178;-77
2023/05/13 04:00:47;;;;;;;11.20;9.20;;;27.70;99.90;;;;;;1884551;75;21590;-77
2023/05/13 04:03:20;;;;;;;11.88;9.73;;;27.90;99.90;;;;;;1834406;76;21188;-75
2023/05/13 04:05:53;;;;;;;11.10;9.60;;;28.10;99.90;;;;;;1861198;75;21119;-78
2023/05/13 04:08:25;;;;;;;10.85;9.15;;;28.30;99.90;;;;;;1885797;75;21150;-77
2023/05/13 04:10:59;;;;;;;10.63;8.80;;;28.40;99.90;;;;;;1830129;78;21123;-77
2023/05/13 04:13:30;;;;;;;11.03;8.98;;;28.40;99.90;;;;;;1838816;78;21178;-77
2023/05/13 04:16:02;;;;;;;11.93;9.20;;;28.50;99.90;;;;;;1863972;75;22091;-77
2023/05/13 04:18:34;;;;;;;12.28;9.95;;;28.70;99.90;;;;;;1886615;75;21252;-78
2023/05/13 04:21:10;;;;;;;11.10;9.23;;;28.80;99.90;;;;;;1836112;78;21578;-79
2023/05/13 04:23:41;;;;;;;13.68;9.48;;;28.90;99.90;;;;;;1839699;77;21186;-78
2023/05/13 04:26:15;;;;;;;14.03;9.00;;;28.90;99.90;;;;;;1881270;75;21113;-77
2023/05/13 04:28:47;;;;;;;12.50;9.83;;;28.90;99.90;;;;;;1879215;75;21264;-79
2023/05/13 04:31:18;;;;;;;10.23;9.15;;;28.90;99.90;;;;;;1883235;75;21590;-76
2023/05/13 04:33:49;;;;;;;11.15;9.05;;;29.00;99.90;;;;;;1801597;78;21166;-76
2023/05/13 04:36:20;;;;;;;11.25;9.08;;;29.00;99.90;;;;;;1894405;75;21088;-76
2023/05/13 04:38:54;;;;;;;10.95;8.85;;;28.90;99.90;;;;;;1900148;75;21080;-77
2023/05/13 04:41:24;;;;;;;10.80;9.70;;;28.90;99.90;;;;;;1832305;78;21277;-76
2023/05/13 04:43:56;;;;;;;11.97;10.08;;;28.90;99.90;;;;;;1875116;76;21245;-77
2023/05/13 04:46:27;;;;;;;10.43;9.08;;;28.80;99.90;;;;;;1878325;75;21193;-77
2023/05/13 04:48:58;;;;;;;10.32;9.10;;;28.70;99.90;;;;;;1882953;76;21162;-76
2023/05/13 04:51:31;;;;;;;13.53;10.00;;;28.70;99.90;;;;;;1803062;78;21146;-76
2023/05/13 04:54:02;;;;;;;11.30;10.10;;;28.70;99.90;;;;;;1838430;76;21154;-78
2023/05/13 04:56:33;;;;;;;10.72;9.38;;;28.60;99.90;;;;;;1832801;77;21856;-76
2023/05/13 04:59:05;;;;;;;13.45;10.03;;;28.60;99.90;;;;;;1831769;77;21177;-77
2023/05/13 05:01:36;;;;;;;27.98;12.73;;;28.50;99.90;;;;;;1861110;76;21205;-75
2023/05/13 05:04:11;;;;;;;20.32;13.32;;;28.50;99.90;;;;;;1878663;76;21617;-75
2023/05/13 05:06:44;;;;;;;17.55;12.73;;;28.40;99.90;;;;;;1886837;75;21099;-79
2023/05/13 05:09:16;;;;;;;15.28;11.97;;;28.30;99.90;;;;;;1824002;78;21092;-77
2023/05/13 05:11:49;;;;;;;14.65;12.47;;;28.10;99.90;;;;;;1801953;79;21212;-78
2023/05/13 05:14:20;;;;;;;18.80;12.88;;;28.00;99.90;;;;;;1882049;75;21131;-78
2023/05/13 05:16:52;;;;;;;18.25;12.00;;;27.80;99.90;;;;;;1884350;76;21133;-81
2023/05/13 05:19:26;;;;;;;17.32;12.98;;;27.70;99.90;;;;;;1820896;78;21233;-79
2023/05/13 05:22:00;;;;;;;12.00;8.48;;;27.50;99.90;;;;;;1837837;77;21137;-77
2023/05/13 05:24:31;;;;;;;11.45;6.67;;;27.30;99.90;;;;;;1832859;77;21109;-78
2023/05/13 05:27:02;;;;;;;14.28;8.65;;;27.00;99.90;;;;;;1873423;76;21545;-75
2023/05/13 05:29:36;;;;;;;15.40;7.03;;;26.80;99.90;;;;;;1886493;75;21129;-76
2023/05/13 05:32:08;;;;;;;12.30;7.55;;;26.60;99.90;;;;;;1801790;78;21127;-76
2023/05/13 05:34:39;;;;;;;12.10;7.35;;;26.40;99.90;;;;;;1828787;77;21150;-75
2023/05/13 05:37:10;;;;;;;14.55;6.97;;;26.30;99.90;;;;;;1876050;75;21614;-78
2023/05/13 05:39:42;;;;;;;11.35;6.85;;;26.20;99.90;;;;;;1873632;75;21182;-76
2023/05/13 05:42:16;;;;;;;9.70;6.75;;;26.10;99.90;;;;;;1798978;79;21604;-76
2023/05/13 05:44:47;;;;;;;9.95;5.30;;;26.10;99.90;;;;;;1882679;76;21532;-77
2023/05/13 05:47:19;;;;;;;8.58;6.60;;;26.00;99.90;;;;;;1886475;75;21204;-75
2023/05/13 05:49:51;;;;;;;8.90;5.58;;;25.90;99.90;;;;;;1812467;78;21149;-76
2023/05/13 05:52:22;;;;;;;9.75;5.62;;;25.80;99.90;;;;;;1882846;75;21150;-75
2023/05/13 05:54:54;;;;;;;8.40;4.55;;;25.80;99.90;;;;;;1882499;75;21084;-75
2023/05/13 05:57:25;;;;;;;8.50;6.80;;;25.70;99.90;;;;;;1871148;75;21170;-76
2023/05/13 05:59:56;;;;;;;5.92;4.22;;;25.60;99.90;;;;;;1805386;79;21178;-76
2023/05/13 06:02:28;;;;;;;13.15;10.50;;;25.50;99.90;;;;;;1897004;75;21706;-76
2023/05/13 06:04:59;;;;;;;5.25;3.70;;;25.40;99.90;;;;;;1871491;75;21092;-77
2023/05/13 06:07:30;;;;;;;7.65;4.37;;;25.40;99.90;;;;;;1885966;75;21189;-75
2023/05/13 06:10:01;;;;;;;7.20;4.20;;;25.30;99.90;;;;;;1875092;76;21082;-77
2023/05/13 06:12:34;;;;;;;7.90;5.03;;;25.40;99.90;;;;;;1876019;75;21132;-76
2023/05/13 06:15:12;;;;;;;7.80;5.00;;;25.40;99.90;;;;;;1875422;76;21132;-78
2023/05/13 06:17:43;;;;;;;6.25;4.05;;;25.40;99.90;;;;;;1876357;75;21237;-75
2023/05/13 06:20:14;;;;;;;6.60;4.10;;;25.40;99.90;;;;;;1879263;75;21199;-73
2023/05/13 06:22:45;;;;;;;6.40;4.62;;;25.40;99.90;;;;;;1875455;75;21188;-76
2023/05/13 06:25:16;;;;;;;7.22;4.70;;;25.40;99.90;;;;;;1866237;76;21149;-76
2023/05/13 06:27:47;;;;;;;7.22;3.95;;;25.40;99.90;;;;;;1876403;75;21121;-75
2023/05/13 06:30:20;;;;;;;6.03;3.60;;;25.40;99.90;;;;;;1878874;75;21247;-75
2023/05/13 06:32:54;;;;;;;5.30;3.83;;;25.40;99.90;;;;;;1873915;75;21179;-75
2023/05/13 06:35:26;;;;;;;6.10;3.77;;;25.40;99.90;;;;;;1872798;75;21062;-77
2023/05/13 06:37:57;;;;;;;8.15;4.22;;;25.40;99.90;;;;;;1882953;75;21162;-76
2023/05/13 06:40:29;;;;;;;8.45;4.62;;;25.40;99.90;;;;;;1878710;75;21552;-77
2023/05/13 06:43:00;;;;;;;8.45;4.30;;;25.40;99.90;;;;;;1877516;75;21164;-76
2023/05/13 06:45:32;;;;;;;6.05;4.28;;;25.40;99.90;;;;;;1872538;75;21133;-76
2023/05/13 06:48:03;;;;;;;5.67;3.95;;;25.40;99.90;;;;;;1876636;75;21141;-77
2023/05/13 06:50:35;;;;;;;7.62;4.33;;;25.40;99.90;;;;;;1878180;76;21156;-76
2023/05/13 06:53:06;;;;;;;6.05;4.78;;;25.40;99.90;;;;;;1810308;77;21281;-78
2023/05/13 06:55:40;;;;;;;7.10;5.22;;;25.40;99.90;;;;;;1876322;76;21214;-76
2023/05/13 06:58:10;;;;;;;8.35;5.28;;;25.40;99.90;;;;;;1812724;77;21157;-75
2023/05/13 07:00:45;;;;;;;7.22;5.45;;;25.40;99.90;;;;;;1877644;76;21118;-75
2023/05/13 07:03:23;;;;;;;9.60;5.42;;;25.40;99.90;;;;;;1866137;75;21149;-77
2023/05/13 07:05:58;;;;;;;7.05;5.33;;;25.50;99.90;;;;;;1859983;76;21152;-76
2023/05/13 07:08:29;;;;;;;8.65;6.00;;;25.50;99.90;;;;;;1852993;75;21066;-76
2023/05/13 07:11:00;;;;;;;6.22;4.37;;;25.50;99.90;;;;;;1870944;76;21172;-77
2023/05/13 07:13:33;;;;;;;6.17;3.85;;;25.50;99.90;;;;;;1849357;75;21059;-76
2023/05/13 07:16:05;;;;;;;7.35;4.00;;;25.50;99.90;;;;;;1868104;76;21081;-75
2023/05/13 07:18:36;;;;;;;5.30;3.08;;;25.50;99.90;;;;;;1849079;75;21162;-75
2023/05/13 07:21:10;;;;;;;5.87;3.37;;;25.50;99.90;;;;;;1862884;76;21609;-75
2023/05/13 07:23:43;;;;;;;4.25;3.37;;;25.60;99.90;;;;;;1854509;75;21056;-76
2023/05/13 07:26:14;;;;;;;3.98;2.95;;;25.50;99.90;;;;;;1819817;78;21161;-75
2023/05/13 07:28:50;;;;;;;3.90;3.27;;;25.50;99.90;;;;;;1849819;75;21158;-75
2023/05/13 07:31:26;;;;;;;3.90;3.00;;;25.50;99.90;;;;;;1858254;75;21154;-77
2023/05/13 07:34:05;;;;;;;3.52;2.90;;;25.50;99.90;;;;;;1861913;76;21111;-75
2023/05/13 07:36:37;;;;;;;3.35;2.50;;;25.50;99.90;;;;;;1874374;75;21137;-75
2023/05/13 07:39:12;;;;;;;3.05;2.47;;;25.60;99.90;;;;;;1862316;75;21153;-77
2023/05/13 07:41:44;;;;;;;3.92;2.60;;;25.60;99.90;;;;;;1874747;76;21087;-77
2023/05/13 07:44:21;;;;;;;3.15;2.83;;;25.50;99.90;;;;;;1855906;75;21309;-75
2023/05/13 07:46:55;;;;;;;3.72;3.00;;;25.60;99.90;;;;;;1863424;76;21133;-74
2023/05/13 07:49:27;;;;;;;3.83;3.27;;;25.60;99.90;;;;;;1854432;75;21119;-77
2023/05/13 07:51:58;;;;;;;3.90;3.10;;;25.60;99.90;;;;;;1845450;76;21130;-74
2023/05/13 07:54:29;;;;;;;5.80;3.17;;;25.70;99.90;;;;;;1862531;75;21673;-76
2023/05/13 07:57:00;;;;;;;6.20;3.42;;;25.70;99.90;;;;;;1859876;76;21595;-76
2023/05/13 07:59:31;;;;;;;4.00;3.58;;;25.80;99.90;;;;;;1868023;75;21286;-75
2023/05/13 08:02:04;;;;;;;4.65;3.95;;;25.80;99.90;;;;;;1856492;76;21111;-77
2023/05/13 08:04:37;;;;;;;5.08;3.87;;;25.90;99.90;;;;;;1864058;75;21151;-74
2023/05/13 08:07:11;;;;;;;4.03;3.62;;;25.90;99.90;;;;;;1859514;76;21072;-74
2023/05/13 08:09:45;;;;;;;5.28;4.00;;;25.90;99.90;;;;;;1869852;75;21280;-75
2023/05/13 08:12:16;;;;;;;5.80;4.45;;;26.00;99.90;;;;;;1872201;75;21191;-78
2023/05/13 08:14:50;;;;;;;6.35;4.15;;;26.00;99.90;;;;;;1872386;76;21122;-75
2023/05/13 08:17:22;;;;;;;5.60;3.70;;;26.10;99.90;;;;;;1868947;75;21188;-76
2023/05/13 08:19:53;;;;;;;7.10;4.25;;;26.20;99.90;;;;;;1876548;75;21191;-76
2023/05/13 08:22:26;;;;;;;5.25;4.30;;;26.20;99.90;;;;;;1869493;76;21175;-76
2023/05/13 08:24:59;;;;;;;6.17;4.50;;;26.30;99.90;;;;;;1872873;75;21103;-76
2023/05/13 08:27:29;;;;;;;4.80;4.08;;;26.30;99.90;;;;;;1874528;75;21255;-75
2023/05/13 08:30:06;;;;;;;5.67;4.08;;;26.30;99.90;;;;;;1874537;75;21126;-75
2023/05/13 08:32:35;;;;;;;7.90;4.42;;;26.30;99.90;;;;;;1870854;75;21244;-75
2023/05/13 08:35:06;;;;;;;6.35;4.50;;;26.40;99.90;;;;;;1873690;75;21152;-76
2023/05/13 08:37:42;;;;;;;6.10;4.15;;;26.40;99.90;;;;;;1880902;75;21130;-76
2023/05/13 08:40:11;;;;;;;6.60;4.45;;;26.40;99.90;;;;;;1872402;75;21672;-77
2023/05/13 08:42:48;;;;;;;8.68;5.40;;;26.50;99.90;;;;;;1867753;75;21106;-76
2023/05/13 08:45:22;;;;;;;6.70;5.28;;;26.50;99.90;;;;;;1871528;75;21208;-77
2023/05/13 08:48:01;;;;;;;8.65;4.72;;;26.50;99.90;;;;;;1870749;76;21644;-76
2023/05/13 08:50:35;;;;;;;5.28;4.53;;;26.60;99.90;;;;;;1872140;75;21656;-75
2023/05/13 08:53:07;;;;;;;6.37;4.30;;;26.60;99.90;;;;;;1868834;75;21150;-75
2023/05/13 08:55:39;;;;;;;6.40;4.80;;;26.60;99.90;;;;;;1878639;76;21158;-77
2023/05/13 08:58:11;;;;;;;5.30;4.25;;;26.60;99.90;;;;;;1868647;76;21680;-76
2023/05/13 09:00:42;;;;;;;7.03;5.53;;;26.60;99.90;;;;;;1875059;75;21609;-76
2023/05/13 09:03:14;;;;;;;4.65;4.17;;;26.70;99.90;;;;;;1870806;74;21231;-76
2023/05/13 09:05:46;;;;;;;7.25;5.30;;;26.70;99.90;;;;;;1872806;75;21493;-75
2023/05/13 09:08:17;;;;;;;9.13;5.70;;;26.80;99.90;;;;;;1868874;75;21131;-75
2023/05/13 09:10:49;;;;;;;6.67;5.30;;;26.80;99.90;;;;;;1876159;75;21142;-75
2023/05/13 09:13:21;;;;;;;8.45;6.22;;;26.80;99.90;;;;;;1882498;75;21123;-76
2023/05/13 09:15:53;;;;;;;9.18;5.60;;;26.90;99.90;;;;;;1875236;75;21586;-76
2023/05/13 09:18:26;;;;;;;6.95;5.58;;;26.90;99.90;;;;;;1873719;75;21184;-75
2023/05/13 09:20:58;;;;;;;8.60;5.72;;;26.90;99.90;;;;;;1875141;75;21484;-75
2023/05/13 09:23:29;;;;;;;9.78;7.70;;;27.00;99.90;;;;;;1858279;75;21208;-75
2023/05/13 09:26:00;;;;;;;10.45;5.72;;;27.00;99.90;;;;;;1882333;75;21111;-77
2023/05/13 09:28:31;;;;;;;7.90;5.92;;;27.00;99.90;;;;;;1879176;76;21130;-76
2023/05/13 09:31:03;;;;;;;9.28;6.15;;;27.00;99.90;;;;;;1874137;75;21136;-75
2023/05/13 09:33:35;;;;;;;10.10;6.25;;;27.10;99.90;;;;;;1875288;75;21160;-74
2023/05/13 09:36:08;;;;;;;9.25;6.20;;;27.10;99.90;;;;;;1880964;75;21863;-75
2023/05/13 09:38:39;;;;;;;8.20;6.30;;;27.10;99.90;;;;;;1879434;75;21200;-73
2023/05/13 09:41:11;;;;;;;8.63;6.97;;;27.10;99.90;;;;;;1904604;75;21121;-74
2023/05/13 09:43:43;;;;;;;9.03;6.42;;;27.20;99.90;;;;;;1872553;75;21095;-74
2023/05/13 09:46:14;;;;;;;8.03;7.05;;;27.20;99.90;;;;;;1869627;75;21218;-75
2023/05/13 09:48:45;;;;;;;9.63;6.72;;;27.20;99.90;;;;;;1877639;75;21190;-74
2023/05/13 09:51:17;;;;;;;10.35;7.90;;;27.20;99.90;;;;;;1871860;76;21135;-75
2023/05/13 09:53:48;;;;;;;10.55;8.30;;;27.30;99.90;;;;;;1872254;75;21629;-74
2023/05/13 09:56:22;;;;;;;12.33;8.35;;;27.20;99.90;;;;;;1871696;75;21568;-74
2023/05/13 09:58:55;;;;;;;13.35;9.58;;;27.30;99.90;;;;;;1868958;75;21208;-74
2023/05/13 10:01:28;;;;;;;9.18;8.28;;;27.30;99.90;;;;;;1876885;75;21088;-75
2023/05/13 10:03:59;;;;;;;11.57;8.18;;;27.30;99.90;;;;;;1870304;75;21589;-75
2023/05/13 10:06:32;;;;;;;9.78;8.45;;;27.30;99.90;;;;;;1882028;75;21642;-75
2023/05/13 10:09:04;;;;;;;11.48;8.40;;;27.30;99.90;;;;;;1813477;78;21568;-73
2023/05/13 10:11:35;;;;;;;9.00;8.03;;;27.30;99.90;;;;;;1813456;78;21523;-75
2023/05/13 10:14:07;;;;;;;13.30;9.35;;;27.20;99.90;;;;;;1838354;78;21167;-75
2023/05/13 10:16:38;;;;;;;13.50;8.73;;;27.20;99.90;;;;;;1882333;75;21105;-76
2023/05/13 10:19:10;;;;;;;9.65;8.63;;;27.20;99.90;;;;;;1881175;76;21174;-73
2023/05/13 10:21:43;;;;;;;11.78;8.80;;;27.20;99.90;;;;;;1882537;75;21098;-84
2023/05/13 10:24:14;;;;;;;9.23;8.18;;;27.20;99.90;;;;;;1798110;79;21172;-82
2023/05/13 10:26:46;;;;;;;10.45;7.97;;;27.20;99.90;;;;;;1876736;75;21159;-82
2023/05/13 10:29:24;;;;;;;11.97;8.03;;;27.20;99.90;;;;;;1878985;76;21598;-82
2023/05/13 10:32:00;;;;;;;11.75;8.20;;;27.20;99.90;;;;;;1822029;77;21149;-84
2023/05/13 10:34:33;;;;;;;11.15;7.85;;;27.20;99.90;;;;;;1824455;78;22042;-83
2023/05/13 10:37:22;;;;;;;12.15;8.35;;;27.20;99.90;;;;;;1835350;77;21215;-81
2023/05/13 10:40:13;;;;;;;12.37;9.55;;;27.20;99.90;;;;;;1836010;76;21076;-81
2023/05/13 10:42:48;;;;;;;9.10;7.50;;;27.20;99.90;;;;;;1876866;75;21257;-82
2023/05/13 10:45:19;;;;;;;8.85;7.85;;;27.20;99.90;;;;;;1800601;78;21190;-82
2023/05/13 10:47:51;;;;;;;11.33;8.58;;;27.20;99.90;;;;;;1881091;75;21539;-81
2023/05/13 10:50:26;;;;;;;11.97;7.25;;;27.10;99.90;;;;;;1886547;75;21115;-81
2023/05/13 10:52:58;;;;;;;10.50;7.37;;;27.10;99.90;;;;;;1822606;78;21197;-82
2023/05/13 10:55:29;;;;;;;9.08;7.25;;;27.10;99.90;;;;;;1884295;75;21115;-81
2023/05/13 10:58:11;;;;;;;8.20;7.08;;;27.10;99.90;;;;;;1886710;75;21088;-82
2023/05/13 11:00:44;;;;;;;12.30;7.22;;;27.10;99.90;;;;;;1815516;79;21353;-82
2023/05/13 11:03:24;;;;;;;11.22;7.50;;;27.00;99.90;;;;;;1875332;75;21174;-82
2023/05/13 11:06:05;;;;;;;13.55;8.28;;;27.00;99.90;;;;;;1857469;76;21157;-82
2023/05/13 11:08:40;;;;;;;9.55;7.80;;;27.00;99.90;;;;;;1860881;75;21052;-83
2023/05/13 11:11:26;;;;;;;9.95;7.40;;;27.00;99.90;;;;;;1859925;75;21165;-81
2023/05/13 11:14:01;;;;;;;9.45;7.50;;;27.00;99.90;;;;;;1861820;75;21150;-83
2023/05/13 11:16:33;;;;;;;9.30;8.15;;;26.90;99.90;;;;;;1860432;76;21243;-81
2023/05/13 11:19:06;;;;;;;13.38;8.43;;;26.90;99.90;;;;;;1871266;75;21099;-81
2023/05/13 11:21:54;;;;;;;12.60;8.80;;;26.90;99.90;;;;;;1820331;78;21124;-82
2023/05/13 11:24:26;;;;;;;14.93;9.85;;;26.90;99.90;;;;;;1867748;75;21106;-83
2023/05/13 11:26:59;;;;;;;12.35;9.30;;;26.90;99.90;;;;;;1864830;76;21611;-83
2023/05/13 11:29:35;;;;;;;11.80;9.43;;;26.90;99.90;;;;;;1869002;75;21581;-83
2023/05/13 11:32:06;;;;;;;;;;;26.90;99.90;;;;;;1874883;75;21148;-84
2023/05/13 11:34:37;;;;;;;13.03;10.05;;;26.90;99.90;;;;;;1872594;75;20172;-82
2023/05/13 11:37:10;;;;;;;16.30;10.75;;;26.90;99.90;;;;;;1846458;76;21175;-83
2023/05/13 11:39:44;;;;;;;13.22;10.98;;;26.90;99.90;;;;;;1861918;75;21135;-83
2023/05/13 11:42:18;;;;;;;15.40;13.30;;;26.90;99.90;;;;;;1863322;76;21691;-82
2023/05/13 11:44:51;;;;;;;15.20;12.03;;;26.90;99.90;;;;;;1864446;75;21075;-81
2023/05/13 11:47:27;;;;;;;14.93;11.88;;;26.90;99.90;;;;;;1882357;75;21068;-82
2023/05/13 11:49:58;;;;;;;16.70;12.47;;;26.90;99.90;;;;;;1882029;75;21244;-81
2023/05/13 11:52:33;;;;;;;16.50;11.38;;;26.90;99.90;;;;;;1867038;76;21111;-82
2023/05/13 11:55:05;;;;;;;15.53;11.55;;;26.90;99.90;;;;;;1867093;75;21170;-82
2023/05/13 11:57:36;;;;;;;12.98;10.85;;;26.90;99.90;;;;;;1872878;76;21177;-84
2023/05/13 12:00:09;;;;;;;14.43;10.23;;;26.90;99.90;;;;;;1869301;75;21075;-83
2023/05/13 12:02:42;;;;;;;12.93;10.53;;;26.80;99.90;;;;;;1875147;75;21761;-83
2023/05/13 12:05:14;;;;;;;15.43;11.50;;;26.80;99.90;;;;;;1872311;76;21678;-82
2023/05/13 12:07:51;;;;;;;13.28;10.58;;;26.80;99.90;;;;;;1860521;75;21228;-83
2023/05/13 12:10:23;;;;;;;15.48;12.13;;;26.80;99.90;;;;;;1868873;76;21080;-81
2023/05/13 12:12:55;;;;;;;14.30;10.85;;;26.80;99.90;;;;;;1858606;75;21146;-83
2023/05/13 12:15:26;;;;;;;17.60;12.50;;;26.80;99.90;;;;;;1864234;76;21162;-83
2023/05/13 12:17:57;;;;;;;16.97;11.65;;;26.80;99.90;;;;;;1855485;75;21579;-83
2023/05/13 12:20:28;;;;;;;17.90;10.78;;;26.70;99.90;;;;;;1858507;75;21253;-81
2023/05/13 12:23:00;;;;;;;18.77;11.30;;;26.70;99.90;;;;;;1861280;75;21144;-83
2023/05/13 12:25:40;;;;;;;12.37;10.03;;;26.70;99.90;;;;;;1861204;76;21080;-82
2023/05/13 12:28:16;;;;;;;12.40;10.82;;;26.70;99.90;;;;;;1857779;75;21741;-82
2023/05/13 12:30:55;;;;;;;11.73;10.05;;;26.70;99.90;;;;;;1868234;75;21178;-82
2023/05/13 12:33:28;;;;;;;16.35;11.03;;;26.60;99.90;;;;;;1821026;78;21174;-82
2023/05/13 12:36:33;;;;;;;13.05;10.72;;;26.60;99.90;;;;;;1868332;75;21138;-82
2023/05/13 12:39:10;;;;;;;12.60;10.32;;;26.60;99.90;;;;;;1810629;77;22510;-83
2023/05/13 12:42:00;;;;;;;14.03;9.63;;;26.60;99.90;;;;;;1868254;76;21207;-82
2023/05/13 12:44:32;;;;;;;16.05;11.73;;;26.60;99.90;;;;;;1823165;77;21182;-81
2023/05/13 12:47:06;;;;;;;11.95;10.28;;;26.60;99.90;;;;;;1865144;75;21222;-81
2023/05/13 12:49:57;;;;;;;15.63;10.23;;;26.60;99.90;;;;;;1858978;75;21640;-81
2023/05/13 12:52:37;;;;;;;13.58;10.35;;;26.60;99.90;;;;;;1855912;76;21065;-82
2023/05/13 12:55:26;;;;;;;13.20;9.88;;;26.60;99.90;;;;;;1836978;75;22139;-81
2023/05/13 12:58:02;;;;;;;16.32;9.90;;;26.60;99.90;;;;;;1844766;76;21575;-81
2023/05/13 13:00:34;;;;;;;12.07;9.63;;;26.60;99.90;;;;;;1864418;75;21184;-82
2023/05/13 13:03:09;;;;;;;15.35;11.10;;;26.60;99.90;;;;;;1849850;76;21110;-83
2023/05/13 13:05:40;;;;;;;14.13;10.15;;;26.60;99.90;;;;;;1869279;75;21086;-83
2023/05/13 13:08:11;;;;;;;11.30;10.05;;;26.60;99.90;;;;;;1858741;76;21145;-82
2023/05/13 13:10:43;;;;;;;14.18;11.08;;;26.60;99.90;;;;;;1865188;75;21220;-83